createdAt,value
2017-12-10T00:00:54.009Z,0.33
2017-12-10T00:02:04.338Z,0.33
2017-12-10T00:03:14.596Z,0.28
2017-12-10T00:04:24.911Z,0.3
2017-12-10T00:05:34.558Z,0.28
2017-12-10T00:06:44.852Z,0.22
2017-12-10T00:07:55.126Z,0.24
2017-12-10T00:09:05.401Z,0.28
2017-12-10T00:10:15.013Z,0.2
2017-12-10T00:11:25.281Z,0.2
2017-12-10T00:12:36.506Z,0.17
2017-12-10T00:13:46.756Z,0.17
2017-12-10T00:14:57.016Z,0.11
2017-12-10T00:16:07.284Z,0.14
2017-12-10T00:17:17.641Z,0.06
2017-12-10T00:18:27.362Z,0.11
2017-12-10T00:19:37.460Z,0.12
2017-12-10T00:20:47.496Z,0.09
2017-12-10T00:21:57.271Z,0.12
2017-12-10T00:23:07.271Z,0.09
2017-12-10T00:24:17.257Z,0.06
2017-12-10T00:25:27.282Z,0.08
2017-12-10T00:26:37.612Z,0.05
2017-12-10T00:27:47.871Z,0.05
2017-12-10T00:29:30.019Z,0.01
2017-12-10T00:30:40.339Z,0.09
2017-12-10T00:31:50.656Z,0.05
2017-12-10T00:33:00.939Z,0.14
2017-12-10T00:34:11.217Z,0.03
2017-12-10T00:35:21.544Z,0.01
2017-12-10T00:36:31.577Z,0.05
2017-12-10T00:37:41.826Z,0.06
2017-12-10T00:38:52.064Z,0.09
2017-12-10T00:40:01.980Z,0.03
2017-12-10T00:41:12.107Z,0.09
2017-12-10T00:42:22.560Z,0.06
2017-12-10T00:43:32.961Z,0.06
2017-12-10T00:44:43.198Z,-0.04
2017-12-10T00:45:53.460Z,-0.06
2017-12-10T00:47:03.530Z,0.01
2017-12-10T00:48:13.816Z,-0.02
2017-12-10T00:49:23.740Z,0.02
2017-12-10T00:50:34.080Z,0.01
2017-12-10T00:51:44.364Z,0.03
2017-12-10T00:52:54.608Z,-0.01
2017-12-10T00:54:04.881Z,-0.07
2017-12-10T00:55:14.998Z,-0.02
2017-12-10T00:56:25.244Z,-0.15
2017-12-10T00:57:35.502Z,-0.17
2017-12-10T00:58:45.577Z,-0.09
2017-12-10T00:59:55.831Z,-0.07
2017-12-10T01:01:06.090Z,-0.12
2017-12-10T01:02:16.080Z,-0.12
2017-12-10T01:03:26.640Z,-0.09
2017-12-10T01:04:36.942Z,-0.17
2017-12-10T01:05:47.181Z,-0.19
2017-12-10T01:06:57.426Z,-0.12
2017-12-10T01:08:07.166Z,-0.15
2017-12-10T01:09:17.419Z,-0.09
2017-12-10T01:10:27.820Z,-0.12
2017-12-10T01:11:38.100Z,-0.12
2017-12-10T01:12:48.455Z,-0.16
2017-12-10T01:13:58.689Z,-0.12
2017-12-10T01:15:08.952Z,-0.07
2017-12-10T01:16:19.186Z,-0.12
2017-12-10T01:17:29.429Z,-0.12
2017-12-10T01:18:39.485Z,-0.22
2017-12-10T01:19:49.738Z,-0.17
2017-12-10T01:20:59.983Z,-0.19
2017-12-10T01:22:10.266Z,-0.22
2017-12-10T01:23:20.596Z,-0.2
2017-12-10T01:24:30.832Z,-0.16
2017-12-10T01:25:40.828Z,-0.25
2017-12-10T01:26:51.094Z,-0.17
2017-12-10T01:28:01.419Z,-0.17
2017-12-10T01:29:11.426Z,-0.19
2017-12-10T01:30:21.459Z,-0.25
2017-12-10T01:31:31.192Z,-0.17
2017-12-10T01:32:41.468Z,-0.22
2017-12-10T01:33:51.535Z,-0.16
2017-12-10T01:35:02.040Z,-0.09
2017-12-10T01:36:12.294Z,-0.15
2017-12-10T01:37:21.916Z,-0.09
2017-12-10T01:38:32.163Z,-0.09
2017-12-10T01:39:42.444Z,-0.15
2017-12-10T01:40:52.740Z,-0.12
2017-12-10T01:42:02.987Z,-0.15
2017-12-10T01:43:12.875Z,-0.23
2017-12-10T01:44:23.173Z,-0.2
2017-12-10T01:45:33.460Z,-0.23
2017-12-10T01:46:43.758Z,-0.28
2017-12-10T01:47:53.757Z,-0.35
2017-12-10T01:49:04.099Z,-0.38
2017-12-10T01:50:14.503Z,-0.31
2017-12-10T01:51:24.498Z,-0.45
2017-12-10T01:52:34.845Z,-0.31
2017-12-10T01:53:45.207Z,-0.28
2017-12-10T01:54:55.461Z,-0.34
2017-12-10T01:56:06.679Z,-0.35
2017-12-10T01:57:16.832Z,-0.35
2017-12-10T01:58:27.077Z,-0.37
2017-12-10T01:59:37.319Z,-0.46
2017-12-10T02:00:47.565Z,-0.41
2017-12-10T02:01:57.846Z,-0.41
2017-12-10T02:03:08.149Z,-0.4
2017-12-10T02:04:17.884Z,-0.34
2017-12-10T02:05:27.885Z,-0.35
2017-12-10T02:06:38.147Z,-0.41
2017-12-10T02:07:48.384Z,-0.46
2017-12-10T02:08:58.497Z,-0.56
2017-12-10T02:10:08.532Z,-0.46
2017-12-10T02:11:18.808Z,-0.46
2017-12-10T02:12:29.092Z,-0.49
2017-12-10T02:13:39.384Z,-0.53
2017-12-10T02:14:49.261Z,-0.58
2017-12-10T02:15:59.541Z,-0.6
2017-12-10T02:17:09.784Z,-0.69
2017-12-10T02:18:21.035Z,-0.59
2017-12-10T02:19:31.304Z,-0.66
2017-12-10T02:20:41.438Z,-0.63
2017-12-10T02:21:51.687Z,-0.64
2017-12-10T02:23:01.707Z,-0.64
2017-12-10T02:24:11.999Z,-0.76
2017-12-10T02:25:22.040Z,-0.76
2017-12-10T02:26:32.327Z,-0.76
2017-12-10T02:27:42.602Z,-0.76
2017-12-10T02:28:52.898Z,-0.74
2017-12-10T02:30:03.767Z,-0.77
2017-12-10T02:31:13.784Z,-0.71
2017-12-10T02:32:24.031Z,-0.67
2017-12-10T02:33:35.254Z,-0.64
2017-12-10T02:34:45.141Z,-0.74
2017-12-10T02:35:55.405Z,-0.73
2017-12-10T02:37:05.715Z,-0.77
2017-12-10T02:38:15.987Z,-0.77
2017-12-10T02:39:25.878Z,-0.76
2017-12-10T02:40:36.134Z,-0.71
2017-12-10T02:41:47.068Z,-0.78
2017-12-10T02:42:57.405Z,-0.73
2017-12-10T02:44:07.407Z,-0.77
2017-12-10T02:45:17.768Z,-0.77
2017-12-10T02:46:28.140Z,-0.76
2017-12-10T02:47:38.037Z,-0.76
2017-12-10T02:48:48.463Z,-0.81
2017-12-10T02:49:58.772Z,-0.89
2017-12-10T02:51:09.074Z,-0.88
2017-12-10T02:52:19.325Z,-0.82
2017-12-10T02:53:29.476Z,-0.91
2017-12-10T02:54:39.785Z,-0.91
2017-12-10T02:55:49.756Z,-0.77
2017-12-10T02:57:00.010Z,-0.91
2017-12-10T02:58:10.261Z,-0.91
2017-12-10T02:59:20.495Z,-0.81
2017-12-10T03:00:30.749Z,-0.82
2017-12-10T03:01:41.017Z,-0.87
2017-12-10T03:02:51.244Z,-0.88
2017-12-10T03:04:01.109Z,-0.87
2017-12-10T03:05:11.336Z,-0.91
2017-12-10T03:06:21.593Z,-0.87
2017-12-10T03:07:31.880Z,-0.88
2017-12-10T03:08:42.228Z,-0.85
2017-12-10T03:09:52.201Z,-0.84
2017-12-10T03:11:02.187Z,-0.85
2017-12-10T03:12:12.522Z,-0.82
2017-12-10T03:13:22.761Z,-0.89
2017-12-10T03:14:33.006Z,-0.85
2017-12-10T03:15:43.263Z,-0.85
2017-12-10T03:16:53.510Z,-0.87
2017-12-10T03:18:03.816Z,-0.85
2017-12-10T03:19:14.252Z,-0.92
2017-12-10T03:20:24.506Z,-0.88
2017-12-10T03:21:34.494Z,-0.91
2017-12-10T03:22:44.816Z,-0.85
2017-12-10T03:23:55.094Z,-0.87
2017-12-10T03:25:05.474Z,-0.85
2017-12-10T03:26:15.724Z,-0.84
2017-12-10T03:27:26.006Z,-0.88
2017-12-10T03:28:36.234Z,-0.82
2017-12-10T03:29:46.492Z,-0.87
2017-12-10T03:30:56.883Z,-0.88
2017-12-10T03:32:07.127Z,-0.82
2017-12-10T03:33:17.364Z,-0.82
2017-12-10T03:34:27.683Z,-0.91
2017-12-10T03:35:37.699Z,-0.85
2017-12-10T03:36:47.732Z,-0.87
2017-12-10T03:37:57.833Z,-0.88
2017-12-10T03:39:07.802Z,-0.89
2017-12-10T03:40:18.089Z,-0.88
2017-12-10T03:41:28.383Z,-0.89
2017-12-10T03:42:38.388Z,-0.82
2017-12-10T03:43:48.359Z,-0.92
2017-12-10T03:44:58.600Z,-0.91
2017-12-10T03:46:08.862Z,-0.88
2017-12-10T03:47:19.101Z,-0.82
2017-12-10T03:48:29.382Z,-0.82
2017-12-10T03:49:39.360Z,-0.84
2017-12-10T03:50:49.743Z,-0.74
2017-12-10T03:52:00.077Z,-0.81
2017-12-10T03:53:10.346Z,-0.84
2017-12-10T03:54:20.581Z,-0.78
2017-12-10T03:55:30.819Z,-0.76
2017-12-10T03:56:41.037Z,-0.82
2017-12-10T03:57:51.299Z,-0.74
2017-12-10T03:59:01.321Z,-0.71
2017-12-10T04:00:11.324Z,-0.74
2017-12-10T04:01:21.643Z,-0.7
2017-12-10T04:02:31.649Z,-0.82
2017-12-10T04:03:41.645Z,-0.77
2017-12-10T04:04:51.687Z,-0.78
2017-12-10T04:06:01.919Z,-0.74
2017-12-10T04:07:12.355Z,-0.84
2017-12-10T04:08:22.298Z,-0.84
2017-12-10T04:09:32.526Z,-0.88
2017-12-10T04:10:42.795Z,-0.82
2017-12-10T04:11:53.074Z,-0.88
2017-12-10T04:13:03.352Z,-0.85
2017-12-10T04:14:13.611Z,-0.87
2017-12-10T04:15:23.965Z,-0.85
2017-12-10T04:16:34.213Z,-0.84
2017-12-10T04:17:44.502Z,-0.87
2017-12-10T04:18:54.535Z,-0.85
2017-12-10T04:20:04.791Z,-0.74
2017-12-10T04:21:15.039Z,-0.77
2017-12-10T04:22:25.289Z,-0.82
2017-12-10T04:23:35.533Z,-0.82
2017-12-10T04:24:45.759Z,-0.76
2017-12-10T04:25:55.831Z,-0.78
2017-12-10T04:27:06.143Z,-0.76
2017-12-10T04:28:16.011Z,-0.85
2017-12-10T04:29:26.259Z,-0.84
2017-12-10T04:30:36.491Z,-0.77
2017-12-10T04:31:46.482Z,-0.88
2017-12-10T04:32:56.444Z,-0.82
2017-12-10T04:34:06.187Z,-0.85
2017-12-10T04:35:16.428Z,-0.88
2017-12-10T04:36:26.439Z,-0.87
2017-12-10T04:37:36.691Z,-0.89
2017-12-10T04:38:46.923Z,-0.87
2017-12-10T04:39:56.905Z,-0.89
2017-12-10T04:41:07.153Z,-0.87
2017-12-10T04:42:17.145Z,-0.88
2017-12-10T04:43:27.409Z,-0.85
2017-12-10T04:44:37.674Z,-0.89
2017-12-10T04:45:47.904Z,-0.89
2017-12-10T04:46:58.152Z,-0.87
2017-12-10T04:48:08.393Z,-0.91
2017-12-10T04:49:18.625Z,-0.88
2017-12-10T04:50:28.846Z,-0.73
2017-12-10T04:51:39.082Z,-0.87
2017-12-10T04:52:49.073Z,-0.85
2017-12-10T04:53:59.042Z,-0.85
2017-12-10T04:55:09.060Z,-0.92
2017-12-10T04:56:19.040Z,-0.85
2017-12-10T04:57:29.303Z,-0.77
2017-12-10T04:58:38.962Z,-0.76
2017-12-10T04:59:48.980Z,-0.87
2017-12-10T05:00:58.996Z,-0.85
2017-12-10T05:02:08.980Z,-0.87
2017-12-10T05:03:19.268Z,-0.87
2017-12-10T05:04:29.514Z,-0.89
2017-12-10T05:05:39.491Z,-0.88
2017-12-10T05:06:49.834Z,-0.87
2017-12-10T05:07:59.860Z,-0.91
2017-12-10T05:09:09.846Z,-0.73
2017-12-10T05:10:19.729Z,-0.88
2017-12-10T05:11:29.969Z,-0.88
2017-12-10T05:12:40.331Z,-0.85
2017-12-10T05:13:50.337Z,-0.88
2017-12-10T05:15:00.322Z,-0.85
2017-12-10T05:16:10.561Z,-0.82
2017-12-10T05:17:20.915Z,-0.84
2017-12-10T05:18:31.200Z,-0.77
2017-12-10T05:19:41.499Z,-0.77
2017-12-10T05:20:51.280Z,-0.77
2017-12-10T05:22:01.280Z,-0.87
2017-12-10T05:23:11.525Z,-0.87
2017-12-10T05:24:21.248Z,-0.87
2017-12-10T05:25:31.141Z,-0.84
2017-12-10T05:26:41.416Z,-0.82
2017-12-10T05:27:51.643Z,-0.85
2017-12-10T05:29:01.614Z,-0.87
2017-12-10T05:30:11.855Z,-0.87
2017-12-10T05:31:21.784Z,-0.87
2017-12-10T05:32:32.024Z,-0.87
2017-12-10T05:33:42.371Z,-0.87
2017-12-10T05:34:52.651Z,-0.77
2017-12-10T05:36:02.931Z,-0.87
2017-12-10T05:37:12.930Z,-0.84
2017-12-10T05:38:22.967Z,-0.82
2017-12-10T05:39:33.195Z,-0.87
2017-12-10T05:40:43.451Z,-0.88
2017-12-10T05:41:53.700Z,-0.91
2017-12-10T05:43:03.940Z,-0.84
2017-12-10T05:44:14.195Z,-0.94
2017-12-10T05:45:24.468Z,-0.91
2017-12-10T05:46:34.822Z,-0.91
2017-12-10T05:47:45.079Z,-0.91
2017-12-10T05:48:55.044Z,-0.88
2017-12-10T05:50:05.291Z,-0.82
2017-12-10T05:51:15.527Z,-0.81
2017-12-10T05:52:25.796Z,-0.82
2017-12-10T05:53:36.037Z,-0.82
2017-12-10T05:54:46.511Z,-0.87
2017-12-10T05:55:56.746Z,-0.81
2017-12-10T05:57:07.021Z,-0.77
2017-12-10T05:58:17.270Z,-0.74
2017-12-10T05:59:27.301Z,-0.85
2017-12-10T06:00:37.540Z,-0.74
2017-12-10T06:01:47.550Z,-0.76
2017-12-10T06:02:57.829Z,-0.73
2017-12-10T06:04:08.085Z,-0.71
2017-12-10T06:05:18.427Z,-0.69
2017-12-10T06:06:28.687Z,-0.63
2017-12-10T06:07:38.982Z,-0.69
2017-12-10T06:08:49.032Z,-0.63
2017-12-10T06:09:59.317Z,-0.66
2017-12-10T06:11:09.357Z,-0.6
2017-12-10T06:12:19.215Z,-0.71
2017-12-10T06:13:29.644Z,-0.64
2017-12-10T06:14:39.888Z,-0.7
2017-12-10T06:15:49.898Z,-0.63
2017-12-10T06:17:00.233Z,-0.67
2017-12-10T06:18:10.269Z,-0.63
2017-12-10T06:19:20.577Z,-0.63
2017-12-10T06:20:30.290Z,-0.59
2017-12-10T06:21:40.735Z,-0.59
2017-12-10T06:22:50.984Z,-0.6
2017-12-10T06:24:01.052Z,-0.59
2017-12-10T06:25:10.952Z,-0.6
2017-12-10T06:26:21.247Z,-0.63
2017-12-10T06:27:31.538Z,-0.56
2017-12-10T06:28:41.770Z,-0.56
2017-12-10T06:29:51.857Z,-0.56
2017-12-10T06:31:02.114Z,-0.52
2017-12-10T06:32:12.393Z,-0.6
2017-12-10T06:33:22.649Z,-0.59
2017-12-10T06:34:32.930Z,-0.6
2017-12-10T06:35:43.199Z,-0.66
2017-12-10T06:36:53.191Z,-0.58
2017-12-10T06:38:03.606Z,-0.66
2017-12-10T06:39:13.970Z,-0.64
2017-12-10T06:40:24.272Z,-0.63
2017-12-10T06:41:35.486Z,-0.63
2017-12-10T06:42:45.794Z,-0.63
2017-12-10T06:43:55.741Z,-0.63
2017-12-10T06:45:06.076Z,-0.59
2017-12-10T06:46:15.774Z,-0.55
2017-12-10T06:47:26.115Z,-0.64
2017-12-10T06:48:36.353Z,-0.64
2017-12-10T06:49:46.436Z,-0.74
2017-12-10T06:50:56.706Z,-0.73
2017-12-10T06:52:07.295Z,-0.76
2017-12-10T06:53:17.621Z,-0.77
2017-12-10T06:54:27.864Z,-0.77
2017-12-10T06:55:38.127Z,-0.87
2017-12-10T06:56:48.353Z,-0.77
2017-12-10T06:57:58.380Z,-0.81
2017-12-10T06:59:08.685Z,-0.88
2017-12-10T07:00:18.935Z,-0.84
2017-12-10T07:01:29.164Z,-0.89
2017-12-10T07:02:39.120Z,-0.91
2017-12-10T07:03:49.395Z,-0.88
2017-12-10T07:04:59.645Z,-0.87
2017-12-10T07:06:09.974Z,-0.85
2017-12-10T07:07:20.051Z,-0.89
2017-12-10T07:08:30.352Z,-0.88
2017-12-10T07:09:40.670Z,-0.88
2017-12-10T07:10:50.109Z,-0.88
2017-12-10T07:12:00.057Z,-0.89
2017-12-10T07:13:10.142Z,-0.94
2017-12-10T07:14:20.515Z,-0.91
2017-12-10T07:15:30.812Z,-0.87
2017-12-10T07:16:41.047Z,-0.94
2017-12-10T07:17:51.289Z,-0.88
2017-12-10T07:19:01.593Z,-0.89
2017-12-10T07:20:11.845Z,-0.91
2017-12-10T07:21:22.126Z,-0.95
2017-12-10T07:22:32.355Z,-0.92
2017-12-10T07:23:42.325Z,-0.96
2017-12-10T07:24:52.684Z,-1.02
2017-12-10T07:26:02.959Z,-0.94
2017-12-10T07:27:13.098Z,-1
2017-12-10T07:28:23.343Z,-0.95
2017-12-10T07:29:33.643Z,-0.95
2017-12-10T07:30:43.917Z,-0.96
2017-12-10T07:31:54.171Z,-0.96
2017-12-10T07:33:04.452Z,-1
2017-12-10T07:34:14.958Z,-1.05
2017-12-10T07:35:25.214Z,-0.92
2017-12-10T07:36:36.536Z,-1
2017-12-10T07:37:47.007Z,-1
2017-12-10T07:38:57.313Z,-0.98
2017-12-10T07:40:07.343Z,-0.94
2017-12-10T07:41:17.616Z,-0.96
2017-12-10T07:42:27.885Z,-0.94
2017-12-10T07:43:38.262Z,-0.89
2017-12-10T07:44:48.231Z,-0.95
2017-12-10T07:45:58.526Z,-0.98
2017-12-10T07:47:08.772Z,-0.98
2017-12-10T07:48:19.108Z,-1.02
2017-12-10T07:49:29.115Z,-0.92
2017-12-10T07:50:39.137Z,-0.98
2017-12-10T07:51:49.141Z,-1
2017-12-10T07:52:59.643Z,-0.96
2017-12-10T07:54:09.912Z,-0.98
2017-12-10T07:55:19.955Z,-0.92
2017-12-10T07:56:30.190Z,-0.85
2017-12-10T07:57:40.465Z,-0.88
2017-12-10T07:58:51.416Z,-0.88
2017-12-10T08:00:01.764Z,-0.87
2017-12-10T08:01:11.784Z,-0.84
2017-12-10T08:02:22.355Z,-0.76
2017-12-10T08:03:32.610Z,-0.69
2017-12-10T08:04:42.229Z,-0.63
2017-12-10T08:05:52.322Z,-0.6
2017-12-10T08:07:02.408Z,-0.59
2017-12-10T08:08:12.745Z,-0.63
2017-12-10T08:09:23.007Z,-0.67
2017-12-10T08:10:33.013Z,-0.6
2017-12-10T08:11:43.096Z,-0.6
2017-12-10T08:12:52.787Z,-0.58
2017-12-10T08:14:03.085Z,-0.52
2017-12-10T08:15:12.992Z,-0.56
2017-12-10T08:16:23.331Z,-0.52
2017-12-10T08:17:33.224Z,-0.51
2017-12-10T08:18:43.482Z,-0.49
2017-12-10T08:19:53.503Z,-0.49
2017-12-10T08:21:03.804Z,-0.52
2017-12-10T08:22:14.145Z,-0.55
2017-12-10T08:23:24.393Z,-0.48
2017-12-10T08:24:34.660Z,-0.45
2017-12-10T08:25:44.962Z,-0.49
2017-12-10T08:26:55.227Z,-0.52
2017-12-10T08:28:05.118Z,-0.56
2017-12-10T08:29:15.157Z,-0.52
2017-12-10T08:30:25.474Z,-0.58
2017-12-10T08:31:35.212Z,-0.6
2017-12-10T08:32:45.553Z,-0.63
2017-12-10T08:33:55.842Z,-0.59
2017-12-10T08:35:06.125Z,-0.64
2017-12-10T08:36:16.377Z,-0.6
2017-12-10T08:37:26.640Z,-0.66
2017-12-10T08:38:37.054Z,-0.63
2017-12-10T08:39:47.061Z,-0.66
2017-12-10T08:40:57.320Z,-0.63
2017-12-10T08:42:07.825Z,-0.6
2017-12-10T08:43:17.825Z,-0.74
2017-12-10T08:44:27.549Z,-0.74
2017-12-10T08:45:37.447Z,-0.73
2017-12-10T08:46:47.474Z,-0.76
2017-12-10T08:47:57.838Z,-0.82
2017-12-10T08:49:07.824Z,-0.81
2017-12-10T08:50:18.081Z,-0.85
2017-12-10T08:51:28.112Z,-0.74
2017-12-10T08:52:38.405Z,-0.84
2017-12-10T08:53:48.730Z,-0.82
2017-12-10T08:54:58.138Z,-0.81
2017-12-10T08:56:08.580Z,-0.76
2017-12-10T08:57:18.847Z,-0.82
2017-12-10T08:58:29.137Z,-0.77
2017-12-10T08:59:39.468Z,-0.71
2017-12-10T09:00:49.724Z,-0.77
2017-12-10T09:02:00.016Z,-0.77
2017-12-10T09:03:10.331Z,-0.74
2017-12-10T09:04:20.584Z,-0.66
2017-12-10T09:05:30.867Z,-0.63
2017-12-10T09:06:40.968Z,-0.64
2017-12-10T09:07:51.257Z,-0.64
2017-12-10T09:09:01.521Z,-0.55
2017-12-10T09:10:11.796Z,-0.56
2017-12-10T09:11:21.807Z,-0.51
2017-12-10T09:12:31.589Z,-0.52
2017-12-10T09:13:41.863Z,-0.48
2017-12-10T09:14:52.206Z,-0.49
2017-12-10T09:16:02.478Z,-0.51
2017-12-10T09:17:12.544Z,-0.48
2017-12-10T09:18:22.641Z,-0.43
2017-12-10T09:19:32.914Z,-0.46
2017-12-10T09:20:42.990Z,-0.45
2017-12-10T09:21:53.021Z,-0.46
2017-12-10T09:23:03.017Z,-0.45
2017-12-10T09:24:13.011Z,-0.25
2017-12-10T09:25:23.310Z,-0.22
2017-12-10T09:26:32.939Z,-0.27
2017-12-10T09:27:42.945Z,-0.22
2017-12-10T09:28:52.957Z,-0.25
2017-12-10T09:30:03.253Z,-0.25
2017-12-10T09:31:13.650Z,-0.23
2017-12-10T09:32:23.928Z,-0.23
2017-12-10T09:33:34.265Z,-0.19
2017-12-10T09:34:44.542Z,-0.15
2017-12-10T09:35:54.834Z,-0.23
2017-12-10T09:37:05.091Z,-0.22
2017-12-10T09:38:15.589Z,-0.22
2017-12-10T09:39:25.301Z,-0.23
2017-12-10T09:40:35.562Z,-0.27
2017-12-10T09:41:45.504Z,-0.19
2017-12-10T09:43:27.645Z,-0.22
2017-12-10T09:44:37.951Z,-0.13
2017-12-10T09:45:47.938Z,-0.12
2017-12-10T09:46:58.302Z,-0.19
2017-12-10T09:48:08.205Z,-0.22
2017-12-10T09:49:18.485Z,-0.09
2017-12-10T09:50:28.863Z,-0.1
2017-12-10T09:51:39.137Z,-0.2
2017-12-10T09:52:49.411Z,-0.2
2017-12-10T09:53:59.710Z,-0.2
2017-12-10T09:55:09.981Z,-0.2
2017-12-10T09:56:20.060Z,-0.23
2017-12-10T09:57:30.099Z,-0.23
2017-12-10T09:58:40.122Z,-0.34
2017-12-10T09:59:50.708Z,-0.31
2017-12-10T10:01:00.972Z,-0.46
2017-12-10T10:02:11.251Z,-0.38
2017-12-10T10:03:21.318Z,-0.46
2017-12-10T10:04:32.635Z,-0.49
2017-12-10T10:05:42.908Z,-0.56
2017-12-10T10:06:53.216Z,-0.55
2017-12-10T10:08:03.477Z,-0.53
2017-12-10T10:09:13.795Z,-0.56
2017-12-10T10:10:24.067Z,-0.6
2017-12-10T10:11:33.828Z,-0.63
2017-12-10T10:12:44.209Z,-0.63
2017-12-10T10:13:54.369Z,-0.58
2017-12-10T10:15:04.109Z,-0.64
2017-12-10T10:16:14.416Z,-0.69
2017-12-10T10:17:24.688Z,-0.58
2017-12-10T10:18:34.804Z,-0.52
2017-12-10T10:19:45.112Z,-0.48
2017-12-10T10:20:55.397Z,-0.49
2017-12-10T10:22:05.656Z,-0.58
2017-12-10T10:23:15.955Z,-0.58
2017-12-10T10:24:26.245Z,-0.53
2017-12-10T10:25:36.512Z,-0.59
2017-12-10T10:26:46.840Z,-0.59
2017-12-10T10:27:57.110Z,-0.63
2017-12-10T10:29:07.190Z,-0.52
2017-12-10T10:30:18.155Z,-0.55
2017-12-10T10:31:28.402Z,-0.55
2017-12-10T10:32:38.416Z,-0.52
2017-12-10T10:33:48.689Z,-0.59
2017-12-10T10:34:58.963Z,-0.55
2017-12-10T10:36:08.733Z,-0.48
2017-12-10T10:37:18.979Z,-0.56
2017-12-10T10:38:29.258Z,-0.55
2017-12-10T10:39:39.285Z,-0.55
2017-12-10T10:40:49.554Z,-0.51
2017-12-10T10:41:59.875Z,-0.49
2017-12-10T10:43:10.143Z,-0.53
2017-12-10T10:44:20.463Z,-0.55
2017-12-10T10:45:30.508Z,-0.48
2017-12-10T10:46:40.396Z,-0.53
2017-12-10T10:47:50.403Z,-0.31
2017-12-10T10:49:00.678Z,-0.31
2017-12-10T10:50:10.677Z,-0.34
2017-12-10T10:51:20.718Z,-0.27
2017-12-10T10:52:31.007Z,-0.31
2017-12-10T10:53:41.059Z,-0.23
2017-12-10T10:54:51.065Z,-0.28
2017-12-10T10:56:01.444Z,-0.23
2017-12-10T10:57:11.334Z,-0.23
2017-12-10T10:58:21.122Z,-0.13
2017-12-10T10:59:31.509Z,-0.22
2017-12-10T11:00:41.800Z,-0.07
2017-12-10T11:01:51.738Z,-0.1
2017-12-10T11:03:01.992Z,-0.13
2017-12-10T11:04:12.358Z,-0.13
2017-12-10T11:05:23.612Z,-0.09
2017-12-10T11:06:33.891Z,-0.16
2017-12-10T11:07:44.180Z,-0.2
2017-12-10T11:08:54.519Z,-0.19
2017-12-10T11:10:04.830Z,-0.2
2017-12-10T11:11:14.863Z,-0.25
2017-12-10T11:12:25.160Z,-0.22
2017-12-10T11:13:35.412Z,-0.27
2017-12-10T11:14:45.689Z,-0.23
2017-12-10T11:15:56.018Z,-0.31
2017-12-10T11:17:06.079Z,-0.23
2017-12-10T11:18:16.346Z,-0.19
2017-12-10T11:19:26.768Z,-0.25
2017-12-10T11:20:37.011Z,-0.17
2017-12-10T11:21:47.335Z,-0.12
2017-12-10T11:22:57.282Z,-0.13
2017-12-10T11:24:07.634Z,-0.1
2017-12-10T11:25:17.062Z,-0.16
2017-12-10T11:26:26.988Z,-0.15
2017-12-10T11:27:37.303Z,-0.13
2017-12-10T11:28:47.575Z,-0.19
2017-12-10T11:29:57.916Z,-0.22
2017-12-10T11:31:08.194Z,-0.23
2017-12-10T11:32:18.466Z,-0.27
2017-12-10T11:33:28.527Z,-0.28
2017-12-10T11:34:38.626Z,-0.2
2017-12-10T11:35:48.911Z,-0.16
2017-12-10T11:36:59.254Z,-0.13
2017-12-10T11:38:09.524Z,-0.12
2017-12-10T11:39:19.169Z,-0.12
2017-12-10T11:40:29.503Z,-0.15
2017-12-10T11:41:39.769Z,-0.19
2017-12-10T11:42:50.073Z,-0.19
2017-12-10T11:44:00.248Z,-0.2
2017-12-10T11:45:10.603Z,-0.25
2017-12-10T11:46:20.881Z,-0.16
2017-12-10T11:47:31.196Z,-0.25
2017-12-10T11:48:41.479Z,-0.23
2017-12-10T11:49:51.753Z,-0.28
2017-12-10T11:51:02.080Z,-0.27
2017-12-10T11:52:12.090Z,-0.28
2017-12-10T11:53:22.422Z,-0.31
2017-12-10T11:54:32.499Z,-0.35
2017-12-10T11:55:42.781Z,-0.34
2017-12-10T11:56:53.103Z,-0.23
2017-12-10T11:58:03.122Z,-0.2
2017-12-10T11:59:13.401Z,-0.25
2017-12-10T12:00:23.670Z,-0.22
2017-12-10T12:02:05.827Z,-0.28
2017-12-10T12:03:16.113Z,-0.28
2017-12-10T12:04:26.423Z,-0.25
2017-12-10T12:05:36.806Z,-0.16
2017-12-10T12:06:47.111Z,-0.13
2017-12-10T12:07:57.583Z,-0.15
2017-12-10T12:09:07.620Z,-0.16
2017-12-10T12:10:17.959Z,-0.27
2017-12-10T12:11:27.988Z,-0.22
2017-12-10T12:12:38.111Z,-0.16
2017-12-10T12:13:48.389Z,-0.13
2017-12-10T12:14:58.687Z,-0.12
2017-12-10T12:16:08.998Z,-0.12
2017-12-10T12:17:19.396Z,-0.12
2017-12-10T12:18:29.710Z,-0.1
2017-12-10T12:19:40.042Z,-0.13
2017-12-10T12:20:50.314Z,-0.12
2017-12-10T12:22:00.743Z,-0.19
2017-12-10T12:23:11.042Z,-0.23
2017-12-10T12:24:21.325Z,-0.2
2017-12-10T12:25:31.604Z,-0.23
2017-12-10T12:26:41.993Z,-0.27
2017-12-10T12:27:52.280Z,-0.28
2017-12-10T12:29:02.564Z,-0.28
2017-12-10T12:30:12.907Z,-0.25
2017-12-10T12:31:23.204Z,-0.35
2017-12-10T12:32:33.557Z,-0.28
2017-12-10T12:33:43.592Z,-0.35
2017-12-10T12:34:53.902Z,-0.27
2017-12-10T12:36:05.131Z,-0.37
2017-12-10T12:37:15.511Z,-0.38
2017-12-10T12:38:25.841Z,-0.35
2017-12-10T12:39:36.157Z,-0.34
2017-12-10T12:40:47.288Z,-0.3
2017-12-10T12:41:57.372Z,-0.35
2017-12-10T12:43:07.420Z,-0.33
2017-12-10T12:44:17.823Z,-0.37
2017-12-10T12:45:27.843Z,-0.37
2017-12-10T12:46:38.138Z,-0.3
2017-12-10T12:47:47.955Z,-0.35
2017-12-10T12:48:59.220Z,-0.33
2017-12-10T12:50:09.568Z,-0.31
2017-12-10T12:51:19.892Z,-0.28
2017-12-10T12:52:30.221Z,-0.3
2017-12-10T12:53:40.521Z,-0.22
2017-12-10T12:54:50.649Z,-0.23
2017-12-10T12:56:01.051Z,-0.27
2017-12-10T12:57:11.377Z,-0.28
2017-12-10T12:58:21.799Z,-0.25
2017-12-10T12:59:32.105Z,-0.27
2017-12-10T13:00:42.395Z,-0.15
2017-12-10T13:01:52.705Z,-0.19
2017-12-10T13:03:03.957Z,-0.23
2017-12-10T13:04:14.278Z,-0.28
2017-12-10T13:05:24.584Z,-0.35
2017-12-10T13:06:35.122Z,-0.33
2017-12-10T13:07:45.456Z,-0.31
2017-12-10T13:08:55.495Z,-0.3
2017-12-10T13:10:05.779Z,-0.33
2017-12-10T13:11:16.083Z,-0.34
2017-12-10T13:12:26.126Z,-0.33
2017-12-10T13:13:36.422Z,-0.31
2017-12-10T13:14:46.725Z,-0.23
2017-12-10T13:15:57.048Z,-0.33
2017-12-10T13:17:07.359Z,-0.34
2017-12-10T13:18:17.756Z,-0.31
2017-12-10T13:19:28.075Z,-0.3
2017-12-10T13:20:38.242Z,-0.25
2017-12-10T13:21:48.535Z,-0.33
2017-12-10T13:22:58.861Z,-0.37
2017-12-10T13:24:09.306Z,-0.37
2017-12-10T13:25:19.609Z,-0.45
2017-12-10T13:26:29.927Z,-0.46
2017-12-10T13:27:40.345Z,-0.55
2017-12-10T13:28:50.633Z,-0.56
2017-12-10T13:30:00.923Z,-0.55
2017-12-10T13:31:10.958Z,-0.55
2017-12-10T13:32:20.644Z,-0.59
2017-12-10T13:33:30.566Z,-0.49
2017-12-10T13:34:40.848Z,-0.45
2017-12-10T13:35:51.142Z,-0.49
2017-12-10T13:37:01.413Z,-0.53
2017-12-10T13:38:11.726Z,-0.49
2017-12-10T13:39:22.037Z,-0.53
2017-12-10T13:40:32.411Z,-0.51
2017-12-10T13:41:42.735Z,-0.48
2017-12-10T13:42:53.093Z,-0.46
2017-12-10T13:44:03.407Z,-0.55
2017-12-10T13:45:45.638Z,-0.51
2017-12-10T13:46:55.713Z,-0.46
2017-12-10T13:48:06.013Z,-0.49
2017-12-10T13:49:16.287Z,-0.46
2017-12-10T13:50:26.603Z,-0.51
2017-12-10T13:51:36.655Z,-0.48
2017-12-10T13:52:46.977Z,-0.52
2017-12-10T13:53:58.231Z,-0.51
2017-12-10T13:55:08.518Z,-0.51
2017-12-10T13:56:18.461Z,-0.49
2017-12-10T13:57:28.772Z,-0.48
2017-12-10T13:58:39.139Z,-0.53
2017-12-10T13:59:49.414Z,-0.52
2017-12-10T14:00:59.835Z,-0.51
2017-12-10T14:02:09.938Z,-0.63
2017-12-10T14:03:20.262Z,-0.59
2017-12-10T14:04:30.560Z,-0.53
2017-12-10T14:05:40.873Z,-0.53
2017-12-10T14:06:51.200Z,-0.58
2017-12-10T14:08:01.504Z,-0.49
2017-12-10T14:09:11.835Z,-0.55
2017-12-10T14:10:21.656Z,-0.6
2017-12-10T14:11:31.434Z,-0.52
2017-12-10T14:12:41.747Z,-0.56
2017-12-10T14:13:51.822Z,-0.56
2017-12-10T14:15:02.130Z,-0.51
2017-12-10T14:16:12.439Z,-0.53
2017-12-10T14:17:22.748Z,-0.58
2017-12-10T14:18:32.624Z,-0.51
2017-12-10T14:19:43.030Z,-0.53
2017-12-10T14:20:53.193Z,-0.48
2017-12-10T14:22:03.539Z,-0.49
2017-12-10T14:23:13.260Z,-0.4
2017-12-10T14:24:26.352Z,-0.49
2017-12-10T14:25:37.091Z,-0.46
2017-12-10T14:26:47.495Z,-0.41
2017-12-10T14:27:57.865Z,-0.52
2017-12-10T14:29:08.129Z,-0.52
2017-12-10T14:30:18.485Z,-0.55
2017-12-10T14:31:28.558Z,-0.49
2017-12-10T14:32:39.305Z,-0.55
2017-12-10T14:33:49.634Z,-0.56
2017-12-10T14:34:59.674Z,-0.6
2017-12-10T14:36:10.048Z,-0.69
2017-12-10T14:37:21.256Z,-0.71
2017-12-10T14:38:31.861Z,-0.78
2017-12-10T14:39:42.174Z,-0.74
2017-12-10T14:40:52.513Z,-0.76
2017-12-10T14:42:03.075Z,-0.77
2017-12-10T14:43:13.455Z,-0.84
2017-12-10T14:44:24.561Z,-0.82
2017-12-10T14:45:35.907Z,-0.89
2017-12-10T14:46:46.792Z,-0.88
2017-12-10T14:47:57.110Z,-0.88
2017-12-10T14:49:07.423Z,-0.89
2017-12-10T14:50:17.731Z,-0.85
2017-12-10T14:51:28.108Z,-0.89
2017-12-10T14:52:38.454Z,-0.95
2017-12-10T14:53:48.878Z,-1.07
2017-12-10T14:54:59.268Z,-1.25
2017-12-10T14:56:09.611Z,-1.46
2017-12-10T14:57:19.921Z,-1.53
2017-12-10T14:58:30.245Z,-1.67
2017-12-10T14:59:40.196Z,-1.88
2017-12-10T15:00:50.278Z,-2.03
2017-12-10T15:02:00.323Z,-2.01
2017-12-10T15:03:10.518Z,-2.18
2017-12-10T15:04:21.683Z,-2.14
2017-12-10T15:05:32.209Z,-2.24
2017-12-10T15:06:42.661Z,-2.26
2017-12-10T15:07:52.757Z,-2.26
2017-12-10T15:09:02.571Z,-2.4
2017-12-10T15:10:12.952Z,-2.39